Skip Navigation Links Skip Navigation Links

Current Weather

William M Tuck, South Boston, Va.

For information only: do not use for flight planning or navigation.
Latest weather
Observation time Friday, May 25, 2018 8:10 AM EDT
Local time Friday, May 25, 2018 8:33 AM EDT
Flight conditions Visual Meteorological Conditions
Winds
Wind speed calm
Visibility 10 mi.
Sky condition
Ceiling unlimited
Cloud layer scattered clouds 11,000 ft.
Temperature 69°F
Dewpoint 67°F
Altimeter 30.14 in.Hg
Derived measurements
Relative humidity 95%
Density altitude 1096 ft.
Remarks
Fully automated report.
Automated weather observing station without precipitation discriminator.
METAR KW78 251210Z AUTO 00000KT 10SM SCT110 20/19 A3014 RMK AO1 T02030194

Settings

Location code

InnerDrive.Weather 4.0.6615.0 Release CLR 4.0.30319.42000
Copyright ©2018 Inner Drive Technology. All rights reserved. Portions Copyright ©1986-2018 David Braverman.

Find weather

Site navigation


Skip Navigation Links

Place info

Page info

PayPal - The safer, easier way to pay online!

Return home.

Copyright ©2018 Inner Drive Technology. Purveyors of fine, hand-crafted computer software. Page printed 2018-05-25T12:33:37 UTC.